createdAt,value
2019-02-17T00:00:15.927Z,0.00
2019-02-17T00:01:15.904Z,0.00
2019-02-17T00:02:15.892Z,0.00
2019-02-17T00:03:15.901Z,0.00
2019-02-17T00:04:15.874Z,0.00
2019-02-17T00:05:15.884Z,0.00
2019-02-17T00:06:15.873Z,0.00
2019-02-17T00:07:15.839Z,0.00
2019-02-17T00:08:15.883Z,0.00
2019-02-17T00:09:15.838Z,0.00
2019-02-17T00:10:16.375Z,0.00
2019-02-17T00:11:15.834Z,0.00
2019-02-17T00:12:15.846Z,0.00
2019-02-17T00:13:15.782Z,0.00
2019-02-17T00:14:15.833Z,0.00
2019-02-17T00:15:15.796Z,0.00
2019-02-17T00:16:15.995Z,0.00
2019-02-17T00:17:15.901Z,0.00
2019-02-17T00:18:15.828Z,0.00
2019-02-17T00:19:15.987Z,0.00
2019-02-17T00:20:15.749Z,0.00
2019-02-17T00:21:15.689Z,0.00
2019-02-17T00:22:15.685Z,0.00
2019-02-17T00:23:15.846Z,0.00
2019-02-17T00:24:15.658Z,0.00
2019-02-17T00:25:15.814Z,0.00
2019-02-17T00:26:15.865Z,0.00
2019-02-17T00:27:15.872Z,0.00
2019-02-17T00:28:15.669Z,0.00
2019-02-17T00:29:15.604Z,0.00
2019-02-17T00:30:16.233Z,0.00
2019-02-17T00:31:15.667Z,0.00
2019-02-17T00:32:15.643Z,0.00
2019-02-17T00:33:15.564Z,0.00
2019-02-17T00:34:15.569Z,0.00
2019-02-17T00:35:15.543Z,0.00
2019-02-17T00:36:15.532Z,0.00
2019-02-17T00:37:15.518Z,0.00
2019-02-17T00:38:15.511Z,0.00
2019-02-17T00:39:15.491Z,0.00
2019-02-17T00:40:15.509Z,0.00
2019-02-17T00:41:15.475Z,0.00
2019-02-17T00:42:15.470Z,0.00
2019-02-17T00:43:15.482Z,0.00
2019-02-17T00:44:15.480Z,0.00
2019-02-17T00:45:15.429Z,0.00
2019-02-17T00:46:15.442Z,0.00
2019-02-17T00:47:15.492Z,0.00
2019-02-17T00:48:15.401Z,0.00
2019-02-17T00:49:15.388Z,0.00
2019-02-17T00:50:15.403Z,0.00
2019-02-17T00:51:15.360Z,0.00
2019-02-17T00:52:15.370Z,0.00
2019-02-17T00:53:15.388Z,0.00
2019-02-17T00:54:15.330Z,0.00
2019-02-17T00:55:15.324Z,0.00
2019-02-17T00:56:15.338Z,0.00
2019-02-17T00:57:15.302Z,0.00
2019-02-17T00:58:15.365Z,0.00
2019-02-17T00:59:15.283Z,0.00
2019-02-17T01:00:15.273Z,0.00
2019-02-17T01:01:15.319Z,0.00
2019-02-17T01:02:15.296Z,0.00
2019-02-17T01:03:15.234Z,0.00
2019-02-17T01:04:15.268Z,0.00
2019-02-17T01:05:15.215Z,0.00
2019-02-17T01:06:15.244Z,0.00
2019-02-17T01:07:15.220Z,0.00
2019-02-17T01:08:15.293Z,0.00
2019-02-17T01:09:15.194Z,0.00
2019-02-17T01:10:15.241Z,0.00
2019-02-17T01:11:15.164Z,0.00
2019-02-17T01:12:15.139Z,0.00
2019-02-17T01:13:15.129Z,0.00
2019-02-17T01:14:15.141Z,0.00
2019-02-17T01:15:15.284Z,0.00
2019-02-17T01:16:15.094Z,0.00
2019-02-17T01:17:15.084Z,0.00
2019-02-17T01:18:15.093Z,0.00
2019-02-17T01:19:15.067Z,0.00
2019-02-17T01:20:15.059Z,0.00
2019-02-17T01:21:15.069Z,0.00
2019-02-17T01:22:15.037Z,0.00
2019-02-17T01:23:15.016Z,0.00
2019-02-17T01:24:15.008Z,0.00
2019-02-17T01:25:15.002Z,0.00
2019-02-17T01:26:14.983Z,0.00
2019-02-17T01:27:15.007Z,0.00
2019-02-17T01:28:15.014Z,0.00
2019-02-17T01:29:20.562Z,0.00
2019-02-17T01:30:15.941Z,0.00
2019-02-17T01:31:14.976Z,0.00
2019-02-17T01:32:14.922Z,0.00
2019-02-17T01:33:14.920Z,0.00
2019-02-17T01:34:14.902Z,0.00
2019-02-17T01:35:14.942Z,0.00
2019-02-17T01:36:14.905Z,0.00
2019-02-17T01:37:14.946Z,0.00
2019-02-17T01:38:14.893Z,0.00
2019-02-17T01:39:14.997Z,0.00
2019-02-17T01:40:14.836Z,0.00
2019-02-17T01:41:14.824Z,0.00
2019-02-17T01:42:14.833Z,0.00
2019-02-17T01:43:14.798Z,0.00
2019-02-17T01:44:14.813Z,0.00
2019-02-17T01:45:14.782Z,0.00
2019-02-17T01:46:14.776Z,0.00
2019-02-17T01:47:14.784Z,0.00
2019-02-17T01:48:14.745Z,0.00
2019-02-17T01:49:14.744Z,0.00
2019-02-17T01:50:14.722Z,0.00
2019-02-17T01:51:14.717Z,0.00
2019-02-17T01:52:14.704Z,0.00
2019-02-17T01:53:14.718Z,0.00
2019-02-17T01:54:14.717Z,0.00
2019-02-17T01:55:14.704Z,0.00
2019-02-17T01:56:14.659Z,0.00
2019-02-17T01:57:14.647Z,0.00
2019-02-17T01:58:14.634Z,0.00
2019-02-17T01:59:14.656Z,0.00
2019-02-17T02:00:14.617Z,0.00
2019-02-17T02:01:16.995Z,0.00
2019-02-17T02:02:14.590Z,0.00
2019-02-17T02:03:14.591Z,0.00
2019-02-17T02:04:14.573Z,0.00
2019-02-17T02:05:14.612Z,0.00
2019-02-17T02:06:14.553Z,0.00
2019-02-17T02:07:14.544Z,0.00
2019-02-17T02:08:14.560Z,0.00
2019-02-17T02:09:14.566Z,0.00
2019-02-17T02:10:14.504Z,0.00
2019-02-17T02:11:14.500Z,0.00
2019-02-17T02:12:14.486Z,0.00
2019-02-17T02:13:14.537Z,0.00
2019-02-17T02:14:14.498Z,0.00
2019-02-17T02:15:14.491Z,0.00
2019-02-17T02:16:14.491Z,0.00
2019-02-17T02:17:14.431Z,0.00
2019-02-17T02:18:14.493Z,0.00
2019-02-17T02:19:14.405Z,0.00
2019-02-17T02:20:14.524Z,0.00
2019-02-17T02:21:14.386Z,0.00
2019-02-17T02:22:14.459Z,0.00
2019-02-17T02:23:14.386Z,0.00
2019-02-17T02:24:14.474Z,0.00
2019-02-17T02:25:14.391Z,0.00
2019-02-17T02:26:14.336Z,0.00
2019-02-17T02:27:14.318Z,0.00
2019-02-17T02:28:14.334Z,0.00
2019-02-17T02:29:14.297Z,0.00
2019-02-17T02:30:14.287Z,0.00
2019-02-17T02:31:14.289Z,0.00
2019-02-17T02:32:14.595Z,0.00
2019-02-17T02:33:14.289Z,0.00
2019-02-17T02:34:14.250Z,0.00
2019-02-17T02:35:14.238Z,0.00
2019-02-17T02:36:14.224Z,0.00
2019-02-17T02:37:14.215Z,0.00
2019-02-17T02:38:14.208Z,0.00
2019-02-17T02:39:14.210Z,0.00
2019-02-17T02:40:14.189Z,0.00
2019-02-17T02:41:14.214Z,0.00
2019-02-17T02:42:14.157Z,0.00
2019-02-17T02:43:14.175Z,0.00
2019-02-17T02:44:14.142Z,0.00
2019-02-17T02:45:14.127Z,0.00
2019-02-17T02:46:14.121Z,0.00
2019-02-17T02:47:14.101Z,0.00
2019-02-17T02:48:14.113Z,0.00
2019-02-17T02:49:14.084Z,0.00
2019-02-17T02:50:14.076Z,0.00
2019-02-17T02:51:14.070Z,0.00
2019-02-17T02:52:14.050Z,0.00
2019-02-17T02:53:14.083Z,0.00
2019-02-17T02:54:14.027Z,0.00
2019-02-17T02:55:14.024Z,0.00
2019-02-17T02:56:14.009Z,0.00
2019-02-17T02:57:14.205Z,0.00
2019-02-17T02:58:13.989Z,0.00
2019-02-17T02:59:14.028Z,0.00
2019-02-17T03:00:13.963Z,0.00
2019-02-17T03:01:14.040Z,0.00
2019-02-17T03:02:13.984Z,0.00
2019-02-17T03:03:13.934Z,0.00
2019-02-17T03:04:13.920Z,0.00
2019-02-17T03:05:13.907Z,0.00
2019-02-17T03:06:13.904Z,0.00
2019-02-17T03:07:13.899Z,0.00
2019-02-17T03:08:13.904Z,0.00
2019-02-17T03:09:13.871Z,0.00
2019-02-17T03:10:13.894Z,0.00
2019-02-17T03:11:13.845Z,0.00
2019-02-17T03:12:13.833Z,0.00
2019-02-17T03:13:13.829Z,0.00
2019-02-17T03:14:13.833Z,0.00
2019-02-17T03:15:13.803Z,0.00
2019-02-17T03:16:13.794Z,0.00
2019-02-17T03:17:13.788Z,0.00
2019-02-17T03:18:13.783Z,0.00
2019-02-17T03:19:13.789Z,0.00
2019-02-17T03:20:13.749Z,0.00
2019-02-17T03:21:13.747Z,0.00
2019-02-17T03:22:13.723Z,0.00
2019-02-17T03:23:13.714Z,0.00
2019-02-17T03:24:13.720Z,0.00
2019-02-17T03:25:13.712Z,0.00
2019-02-17T03:26:13.688Z,0.00
2019-02-17T03:27:13.673Z,0.00
2019-02-17T03:28:13.669Z,0.00
2019-02-17T03:29:13.672Z,0.00
2019-02-17T03:30:13.643Z,0.00
2019-02-17T03:31:13.664Z,0.00
2019-02-17T03:32:13.618Z,0.00
2019-02-17T03:33:13.640Z,0.00
2019-02-17T03:34:13.618Z,0.00
2019-02-17T03:35:13.587Z,0.00
2019-02-17T03:36:13.580Z,0.00
2019-02-17T03:37:13.569Z,0.00
2019-02-17T03:38:13.557Z,0.00
2019-02-17T03:39:13.581Z,0.00
2019-02-17T03:40:13.560Z,0.00
2019-02-17T03:41:13.527Z,0.00
2019-02-17T03:42:13.539Z,0.00
2019-02-17T03:43:13.497Z,0.00
2019-02-17T03:44:13.610Z,0.00
2019-02-17T03:45:13.508Z,0.00
2019-02-17T03:46:13.582Z,0.00
2019-02-17T03:47:13.490Z,0.00
2019-02-17T03:48:13.462Z,0.00
2019-02-17T03:49:13.440Z,0.00
2019-02-17T03:50:13.428Z,0.00
2019-02-17T03:51:13.412Z,0.00
2019-02-17T03:52:13.407Z,0.00
2019-02-17T03:53:13.419Z,0.00
2019-02-17T03:54:13.378Z,0.00
2019-02-17T03:55:13.369Z,0.00
2019-02-17T03:56:13.394Z,0.00
2019-02-17T03:57:13.353Z,0.00
2019-02-17T03:58:13.341Z,0.00
2019-02-17T03:59:13.344Z,0.00
2019-02-17T04:00:17.108Z,0.00
2019-02-17T04:01:13.326Z,0.00
2019-02-17T04:02:13.290Z,0.00
2019-02-17T04:03:13.282Z,0.00
2019-02-17T04:04:13.274Z,0.00
2019-02-17T04:05:13.260Z,0.00
2019-02-17T04:06:13.289Z,0.00
2019-02-17T04:07:13.273Z,0.00
2019-02-17T04:08:13.245Z,0.00
2019-02-17T04:09:13.215Z,0.00
2019-02-17T04:10:13.214Z,0.00
2019-02-17T04:11:13.199Z,0.00
2019-02-17T04:12:13.212Z,0.00
2019-02-17T04:13:13.189Z,0.00
2019-02-17T04:14:13.162Z,0.00
2019-02-17T04:15:13.158Z,0.00
2019-02-17T04:16:13.143Z,0.00
2019-02-17T04:17:13.184Z,0.00
2019-02-17T04:18:13.204Z,0.00
2019-02-17T04:19:13.112Z,0.00
2019-02-17T04:20:13.100Z,0.00
2019-02-17T04:21:13.090Z,0.00
2019-02-17T04:22:13.093Z,0.00
2019-02-17T04:23:13.078Z,0.00
2019-02-17T04:24:13.056Z,0.00
2019-02-17T04:25:13.092Z,0.00
2019-02-17T04:26:13.032Z,0.00
2019-02-17T04:27:13.023Z,0.00
2019-02-17T04:28:13.015Z,0.00
2019-02-17T04:29:13.044Z,0.00
2019-02-17T04:30:13.018Z,0.00
2019-02-17T04:31:13.043Z,0.00
2019-02-17T04:32:12.969Z,0.00
2019-02-17T04:33:13.074Z,0.00
2019-02-17T04:34:12.973Z,0.00
2019-02-17T04:35:12.934Z,0.00
2019-02-17T04:36:12.943Z,0.00
2019-02-17T04:37:12.909Z,0.00
2019-02-17T04:38:12.910Z,0.00
2019-02-17T04:39:12.893Z,0.00
2019-02-17T04:40:12.879Z,0.00
2019-02-17T04:41:12.884Z,0.00
2019-02-17T04:42:12.862Z,0.00
2019-02-17T04:43:12.848Z,0.00
2019-02-17T04:44:12.844Z,0.00
2019-02-17T04:45:12.833Z,0.00
2019-02-17T04:46:12.831Z,0.00
2019-02-17T04:47:12.804Z,0.00
2019-02-17T04:48:12.793Z,0.00
2019-02-17T04:49:12.778Z,0.00
2019-02-17T04:50:12.775Z,0.00
2019-02-17T04:51:12.794Z,0.00
2019-02-17T04:52:12.773Z,0.00
2019-02-17T04:53:12.742Z,0.00
2019-02-17T04:54:12.759Z,0.00
2019-02-17T04:55:12.716Z,0.00
2019-02-17T04:56:12.707Z,0.00
2019-02-17T04:57:12.699Z,0.00
2019-02-17T04:58:12.706Z,0.00
2019-02-17T04:59:12.676Z,0.00
2019-02-17T05:00:12.668Z,0.00
2019-02-17T05:01:12.648Z,0.00
2019-02-17T05:02:12.652Z,0.00
2019-02-17T05:03:12.643Z,0.00
2019-02-17T05:04:12.639Z,0.00
2019-02-17T05:05:12.624Z,0.00
2019-02-17T05:06:12.623Z,0.00
2019-02-17T05:07:12.588Z,0.00
2019-02-17T05:08:12.632Z,0.00
2019-02-17T05:09:12.583Z,0.00
2019-02-17T05:10:12.650Z,0.00
2019-02-17T05:11:12.555Z,0.00
2019-02-17T05:12:12.592Z,0.00
2019-02-17T05:13:12.530Z,0.00
2019-02-17T05:14:12.517Z,0.00
2019-02-17T05:15:12.504Z,0.00
2019-02-17T05:16:12.495Z,0.00
2019-02-17T05:17:12.485Z,0.00
2019-02-17T05:18:12.490Z,0.00
2019-02-17T05:19:12.456Z,0.00
2019-02-17T05:20:12.473Z,0.00
2019-02-17T05:21:12.473Z,0.00
2019-02-17T05:22:12.499Z,0.00
2019-02-17T05:23:12.425Z,0.00
2019-02-17T05:24:12.408Z,0.00
2019-02-17T05:25:12.420Z,0.00
2019-02-17T05:26:12.397Z,0.00
2019-02-17T05:27:12.370Z,0.00
2019-02-17T05:28:12.373Z,0.00
2019-02-17T05:29:12.395Z,0.00
2019-02-17T05:30:12.351Z,0.00
2019-02-17T05:31:12.333Z,0.00
2019-02-17T05:32:12.338Z,0.00
2019-02-17T05:33:12.302Z,0.00
2019-02-17T05:34:12.323Z,0.00
2019-02-17T05:35:12.294Z,0.00
2019-02-17T05:36:12.275Z,0.00
2019-02-17T05:37:12.269Z,0.00
2019-02-17T05:38:12.249Z,0.00
2019-02-17T05:39:12.241Z,0.00
2019-02-17T05:40:12.249Z,0.00
2019-02-17T05:41:12.217Z,0.00
2019-02-17T05:42:12.213Z,0.00
2019-02-17T05:43:12.199Z,0.00
2019-02-17T05:44:12.204Z,0.00
2019-02-17T05:45:12.180Z,0.00
2019-02-17T05:46:12.173Z,0.00
2019-02-17T05:47:12.158Z,0.00
2019-02-17T05:48:12.176Z,0.00
2019-02-17T05:49:12.161Z,0.00
2019-02-17T05:50:12.120Z,0.00
2019-02-17T05:51:12.109Z,0.00
2019-02-17T05:52:12.099Z,0.00
2019-02-17T05:53:12.089Z,0.00
2019-02-17T05:54:12.111Z,0.00
2019-02-17T05:55:12.068Z,0.00
2019-02-17T05:56:12.092Z,0.00
2019-02-17T05:57:12.048Z,0.00
2019-02-17T05:58:12.030Z,0.00
2019-02-17T05:59:12.032Z,0.00
2019-02-17T06:00:12.034Z,0.00
2019-02-17T06:01:12.049Z,0.00
2019-02-17T06:02:11.987Z,0.00
2019-02-17T06:03:11.981Z,0.00
2019-02-17T06:04:11.970Z,0.00
2019-02-17T06:05:12.018Z,0.00
2019-02-17T06:06:11.950Z,4.00
2019-02-17T06:07:11.994Z,4.00
2019-02-17T06:08:11.929Z,0.00
2019-02-17T06:09:11.924Z,0.00
2019-02-17T06:10:11.902Z,4.00
2019-02-17T06:11:11.910Z,4.00
2019-02-17T06:12:11.878Z,4.00
2019-02-17T06:13:11.892Z,4.00
2019-02-17T06:14:11.896Z,4.00
2019-02-17T06:15:11.870Z,4.00
2019-02-17T06:16:11.839Z,8.00
2019-02-17T06:17:11.892Z,12.00
2019-02-17T06:18:11.825Z,8.00
2019-02-17T06:19:11.832Z,12.00
2019-02-17T06:20:11.856Z,16.00
2019-02-17T06:21:11.860Z,16.00
2019-02-17T06:22:11.889Z,20.00
2019-02-17T06:23:11.848Z,28.00
2019-02-17T06:24:11.886Z,28.00
2019-02-17T06:25:11.769Z,32.00
2019-02-17T06:26:11.770Z,44.00
2019-02-17T06:27:11.779Z,52.00
2019-02-17T06:28:11.742Z,56.00
2019-02-17T06:29:11.736Z,68.00
2019-02-17T06:30:11.722Z,76.00
2019-02-17T06:31:14.397Z,92.00
2019-02-17T06:32:11.722Z,104.00
2019-02-17T06:33:11.722Z,116.00
2019-02-17T06:34:11.645Z,132.00
2019-02-17T06:35:11.897Z,148.00
2019-02-17T06:36:11.877Z,164.00
2019-02-17T06:37:11.611Z,180.00
2019-02-17T06:38:11.628Z,200.00
2019-02-17T06:39:11.608Z,212.00
2019-02-17T06:40:11.820Z,232.00
2019-02-17T06:41:11.568Z,256.00
2019-02-17T06:42:11.561Z,280.00
2019-02-17T06:43:11.899Z,300.00
2019-02-17T06:44:11.605Z,324.00
2019-02-17T06:45:11.520Z,348.00
2019-02-17T06:46:11.515Z,376.00
2019-02-17T06:47:12.878Z,404.00
2019-02-17T06:48:11.492Z,432.00
2019-02-17T06:49:11.527Z,464.00
2019-02-17T06:50:11.504Z,492.00
2019-02-17T06:51:11.956Z,532.00
2019-02-17T06:52:11.462Z,568.00
2019-02-17T06:53:11.440Z,608.00
2019-02-17T06:54:12.011Z,652.00
2019-02-17T06:55:11.598Z,704.00
2019-02-17T06:56:11.425Z,756.00
2019-02-17T06:57:11.856Z,808.00
2019-02-17T06:58:11.773Z,860.00
2019-02-17T06:59:11.460Z,920.00
2019-02-17T07:00:11.584Z,968.00
2019-02-17T07:01:11.370Z,1016.00
2019-02-17T07:02:11.359Z,1076.00
2019-02-17T07:03:11.325Z,1136.00
2019-02-17T07:04:11.588Z,1200.00
2019-02-17T07:05:11.735Z,1268.00
2019-02-17T07:06:11.296Z,1332.00
2019-02-17T07:07:11.520Z,1404.00
2019-02-17T07:08:11.303Z,1460.00
2019-02-17T07:09:11.537Z,1520.00
2019-02-17T07:10:11.301Z,1584.00
2019-02-17T07:11:11.283Z,1656.00
2019-02-17T07:12:11.283Z,1720.00
2019-02-17T07:13:11.262Z,1768.00
2019-02-17T07:14:11.391Z,1824.00
2019-02-17T07:15:11.272Z,1876.00
2019-02-17T07:16:11.211Z,1928.00
2019-02-17T07:17:11.337Z,1980.00
2019-02-17T07:18:11.171Z,2036.00
2019-02-17T07:19:11.221Z,2076.00
2019-02-17T07:20:11.152Z,2132.00
2019-02-17T07:21:11.165Z,2180.00
2019-02-17T07:22:11.192Z,2212.00
2019-02-17T07:23:11.115Z,2300.00
2019-02-17T07:24:11.185Z,2352.00
2019-02-17T07:25:11.116Z,2432.00
2019-02-17T07:26:11.521Z,2504.00
2019-02-17T07:27:11.075Z,2572.00
2019-02-17T07:28:11.322Z,2656.00
2019-02-17T07:29:11.052Z,2728.00
2019-02-17T07:30:11.118Z,2804.00
2019-02-17T07:31:11.129Z,2888.00
2019-02-17T07:32:11.125Z,2960.00
2019-02-17T07:33:11.202Z,3028.00
2019-02-17T07:34:11.579Z,3108.00
2019-02-17T07:35:11.160Z,3184.00
2019-02-17T07:36:10.984Z,3260.00
2019-02-17T07:37:11.161Z,3340.00
2019-02-17T07:38:10.956Z,3416.00
2019-02-17T07:39:10.946Z,3476.00
2019-02-17T07:40:11.013Z,3548.00
2019-02-17T07:41:11.122Z,3620.00
2019-02-17T07:42:10.964Z,3692.00
2019-02-17T07:43:11.014Z,3756.00
2019-02-17T07:44:10.908Z,3828.00
2019-02-17T07:45:10.953Z,3892.00
2019-02-17T07:46:10.869Z,3952.00
2019-02-17T07:47:10.897Z,3976.00
2019-02-17T07:48:11.075Z,4016.00
2019-02-17T07:49:10.853Z,4056.00
2019-02-17T07:50:10.828Z,4068.00
2019-02-17T07:51:10.817Z,4072.00
2019-02-17T07:52:10.799Z,4072.00
2019-02-17T07:53:10.817Z,4056.00
2019-02-17T07:54:10.882Z,4024.00
2019-02-17T07:55:10.795Z,4000.00
2019-02-17T07:56:11.006Z,3976.00
2019-02-17T07:57:11.361Z,3968.00
2019-02-17T07:58:10.768Z,3980.00
2019-02-17T07:59:10.818Z,3976.00
2019-02-17T08:00:10.710Z,3960.00
2019-02-17T08:01:10.769Z,3960.00
2019-02-17T08:02:10.696Z,3944.00
2019-02-17T08:03:10.717Z,3976.00
2019-02-17T08:04:10.712Z,3924.00
2019-02-17T08:05:10.675Z,3960.00
2019-02-17T08:06:10.646Z,3968.00
2019-02-17T08:07:10.673Z,3964.00
2019-02-17T08:08:10.626Z,3928.00
2019-02-17T08:09:10.660Z,3888.00
2019-02-17T08:10:10.659Z,3948.00
2019-02-17T08:11:10.595Z,3936.00
2019-02-17T08:12:10.649Z,3940.00
2019-02-17T08:13:10.593Z,3944.00
2019-02-17T08:14:10.737Z,3940.00
2019-02-17T08:15:10.645Z,3916.00
2019-02-17T08:16:10.575Z,3928.00
2019-02-17T08:17:10.537Z,3912.00
2019-02-17T08:18:10.987Z,3924.00
2019-02-17T08:19:10.501Z,3924.00
2019-02-17T08:20:10.515Z,3952.00
2019-02-17T08:21:11.394Z,3972.00
2019-02-17T08:22:10.476Z,4000.00
2019-02-17T08:23:10.471Z,3968.00
2019-02-17T08:24:10.501Z,3996.00
2019-02-17T08:25:20.979Z,4012.00
2019-02-17T08:26:11.585Z,4028.00
2019-02-17T08:27:10.469Z,4004.00
2019-02-17T08:28:10.610Z,4036.00
2019-02-17T08:29:10.647Z,4048.00
2019-02-17T08:30:10.401Z,4088.00
2019-02-17T08:31:10.497Z,4080.00
2019-02-17T08:32:10.397Z,4124.00
2019-02-17T08:33:10.512Z,4144.00
2019-02-17T08:34:10.347Z,4148.00
2019-02-17T08:35:10.382Z,4060.00
2019-02-17T08:36:10.639Z,4184.00
2019-02-17T08:37:10.314Z,4196.00
2019-02-17T08:38:10.294Z,4144.00
2019-02-17T08:39:10.281Z,4144.00
2019-02-17T08:40:12.168Z,4220.00
2019-02-17T08:41:10.282Z,4236.00
2019-02-17T08:42:10.321Z,4256.00
2019-02-17T08:43:10.243Z,4176.00
2019-02-17T08:44:10.476Z,4180.00
2019-02-17T08:45:10.230Z,4272.00
2019-02-17T08:46:10.242Z,4340.00
2019-02-17T08:47:10.208Z,4288.00
2019-02-17T08:48:10.296Z,4252.00
2019-02-17T08:49:10.274Z,4340.00
2019-02-17T08:50:10.257Z,4436.00
2019-02-17T08:51:10.715Z,4440.00
2019-02-17T08:52:10.140Z,4456.00
2019-02-17T08:53:10.497Z,4456.00
2019-02-17T08:54:10.145Z,4448.00
2019-02-17T08:55:10.132Z,4484.00
2019-02-17T08:56:10.190Z,4484.00
2019-02-17T08:57:10.089Z,4592.00
2019-02-17T08:58:10.102Z,4568.00
2019-02-17T08:59:10.091Z,4636.00
2019-02-17T09:00:10.480Z,4656.00
2019-02-17T09:01:10.065Z,4644.00
2019-02-17T09:02:10.126Z,4652.00
2019-02-17T09:03:10.285Z,4624.00
2019-02-17T09:04:10.013Z,4684.00
2019-02-17T09:05:10.048Z,4680.00
2019-02-17T09:06:10.087Z,4732.00
2019-02-17T09:07:10.043Z,4740.00
2019-02-17T09:08:10.425Z,4760.00
2019-02-17T09:09:10.089Z,4760.00
2019-02-17T09:10:09.986Z,4816.00
2019-02-17T09:11:09.980Z,4868.00
2019-02-17T09:12:09.948Z,4912.00
2019-02-17T09:13:09.957Z,4860.00
2019-02-17T09:14:09.908Z,4956.00
2019-02-17T09:15:09.969Z,4964.00
2019-02-17T09:16:09.963Z,4996.00
2019-02-17T09:17:10.168Z,5032.00
2019-02-17T09:18:09.866Z,5056.00
2019-02-17T09:19:09.880Z,4940.00
2019-02-17T09:20:09.882Z,4972.00
2019-02-17T09:21:09.827Z,5088.00
2019-02-17T09:22:10.228Z,5160.00
2019-02-17T09:23:09.824Z,5096.00
2019-02-17T09:24:09.790Z,5100.00
2019-02-17T09:25:09.790Z,5096.00
2019-02-17T09:26:09.773Z,5164.00
2019-02-17T09:27:10.506Z,5184.00
2019-02-17T09:28:09.773Z,5044.00
2019-02-17T09:29:09.772Z,4940.00
2019-02-17T09:30:09.731Z,4892.00
2019-02-17T09:31:09.720Z,5000.00
2019-02-17T09:32:16.348Z,5012.00
2019-02-17T09:33:10.751Z,4980.00
2019-02-17T09:34:09.682Z,4976.00
2019-02-17T09:35:09.669Z,5000.00
2019-02-17T09:36:09.659Z,5004.00
2019-02-17T09:37:09.659Z,5024.00
2019-02-17T09:38:09.660Z,5108.00
2019-02-17T09:39:09.638Z,5136.00
2019-02-17T09:40:09.623Z,5136.00
2019-02-17T09:41:09.627Z,5136.00
2019-02-17T09:42:09.598Z,5260.00
2019-02-17T09:43:09.608Z,5256.00
2019-02-17T09:44:09.577Z,5176.00
2019-02-17T09:45:09.566Z,5340.00
2019-02-17T09:46:09.552Z,5380.00
2019-02-17T09:47:09.544Z,5444.00
2019-02-17T09:48:09.528Z,5432.00
2019-02-17T09:49:09.537Z,5508.00
2019-02-17T09:50:09.510Z,5488.00
2019-02-17T09:51:09.506Z,5468.00
2019-02-17T09:52:09.523Z,5408.00
2019-02-17T09:53:09.477Z,5508.00
2019-02-17T09:54:09.480Z,5576.00
2019-02-17T09:55:09.451Z,5644.00
2019-02-17T09:56:09.438Z,5700.00
2019-02-17T09:57:09.435Z,5820.00
2019-02-17T09:58:09.469Z,5668.00
2019-02-17T09:59:09.522Z,7048.00
2019-02-17T10:00:09.397Z,7520.00
2019-02-17T10:01:09.419Z,7464.00
2019-02-17T10:02:09.377Z,6140.00
2019-02-17T10:03:09.367Z,6156.00
2019-02-17T10:04:09.388Z,5932.00
2019-02-17T10:05:09.408Z,6004.00
2019-02-17T10:06:09.332Z,5952.00
2019-02-17T10:07:09.415Z,6092.00
2019-02-17T10:08:09.309Z,6156.00
2019-02-17T10:09:09.385Z,6148.00
2019-02-17T10:10:09.328Z,6128.00
2019-02-17T10:11:09.283Z,6176.00
2019-02-17T10:12:09.272Z,6112.00
2019-02-17T10:13:09.265Z,6188.00
2019-02-17T10:14:09.241Z,6076.00
2019-02-17T10:15:10.515Z,6188.00
2019-02-17T10:16:09.228Z,6404.00
2019-02-17T10:17:09.213Z,6248.00
2019-02-17T10:18:09.223Z,6288.00
2019-02-17T10:19:09.206Z,6368.00
2019-02-17T10:20:09.248Z,6404.00
2019-02-17T10:21:09.169Z,6348.00
2019-02-17T10:22:09.159Z,6340.00
2019-02-17T10:23:09.171Z,6280.00
2019-02-17T10:24:09.130Z,6296.00
2019-02-17T10:25:09.122Z,6272.00
2019-02-17T10:26:09.135Z,6296.00
2019-02-17T10:27:09.113Z,6356.00
2019-02-17T10:28:09.140Z,6224.00
2019-02-17T10:29:09.132Z,6240.00
2019-02-17T10:30:09.071Z,6352.00
2019-02-17T10:31:09.068Z,6268.00
2019-02-17T10:32:09.083Z,6248.00
2019-02-17T10:33:09.036Z,6316.00
2019-02-17T10:34:09.051Z,6240.00
2019-02-17T10:35:09.012Z,6212.00
2019-02-17T10:36:09.034Z,6076.00
2019-02-17T10:37:08.995Z,6368.00
2019-02-17T10:38:08.993Z,6332.00
2019-02-17T10:39:08.991Z,6388.00
2019-02-17T10:40:09.042Z,6412.00
2019-02-17T10:41:08.977Z,6384.00
2019-02-17T10:42:08.956Z,6244.00
2019-02-17T10:43:08.924Z,6324.00
2019-02-17T10:44:08.976Z,6176.00
2019-02-17T10:45:08.905Z,6280.00
2019-02-17T10:46:08.898Z,6088.00
2019-02-17T10:47:08.915Z,6312.00
2019-02-17T10:48:08.872Z,6476.00
2019-02-17T10:49:08.878Z,6624.00
2019-02-17T10:50:08.857Z,6700.00
2019-02-17T10:51:08.876Z,6788.00
2019-02-17T10:52:08.831Z,6932.00
2019-02-17T10:53:08.951Z,7132.00
2019-02-17T10:54:08.815Z,7344.00
2019-02-17T10:55:08.794Z,7560.00
2019-02-17T10:56:08.842Z,8412.00
2019-02-17T10:57:08.839Z,8660.00
2019-02-17T10:58:08.787Z,11540.00
2019-02-17T10:59:08.755Z,19104.00
2019-02-17T11:00:08.744Z,27392.00
2019-02-17T11:01:08.732Z,29632.00
2019-02-17T11:02:08.749Z,30560.00
2019-02-17T11:03:08.727Z,31328.00
2019-02-17T11:04:08.703Z,33792.00
2019-02-17T11:05:08.692Z,33920.00
2019-02-17T11:06:08.676Z,31520.00
2019-02-17T11:07:08.663Z,29824.00
2019-02-17T11:08:08.650Z,25728.00
2019-02-17T11:09:08.660Z,27488.00
2019-02-17T11:10:08.633Z,28928.00
2019-02-17T11:11:08.623Z,32576.00
2019-02-17T11:12:08.614Z,33664.00
2019-02-17T11:13:08.616Z,33824.00
2019-02-17T11:14:08.608Z,31776.00
2019-02-17T11:15:08.587Z,30144.00
2019-02-17T11:16:08.566Z,31008.00
2019-02-17T11:17:08.554Z,30560.00
2019-02-17T11:18:08.543Z,29664.00
2019-02-17T11:19:08.535Z,29696.00
2019-02-17T11:20:08.541Z,30112.00
2019-02-17T11:21:08.509Z,30464.00
2019-02-17T11:22:08.532Z,28192.00
2019-02-17T11:23:08.490Z,17344.00
2019-02-17T11:24:08.514Z,12524.00
2019-02-17T11:25:08.501Z,11540.00
2019-02-17T11:26:08.452Z,11424.00
2019-02-17T11:27:08.438Z,14004.00
2019-02-17T11:28:08.440Z,19744.00
2019-02-17T11:29:08.421Z,24640.00
2019-02-17T11:30:08.427Z,26208.00
2019-02-17T11:31:08.400Z,26080.00
2019-02-17T11:32:08.423Z,19200.00
2019-02-17T11:33:08.376Z,18272.00
2019-02-17T11:34:08.380Z,10592.00
2019-02-17T11:35:08.350Z,6976.00
2019-02-17T11:36:08.356Z,6424.00
2019-02-17T11:37:08.333Z,6244.00
2019-02-17T11:38:08.368Z,6020.00
2019-02-17T11:39:08.305Z,6012.00
2019-02-17T11:40:08.352Z,6052.00
2019-02-17T11:41:08.309Z,6072.00
2019-02-17T11:42:08.299Z,6100.00
2019-02-17T11:43:08.386Z,6076.00
2019-02-17T11:44:08.260Z,6060.00
2019-02-17T11:45:08.263Z,6004.00
2019-02-17T11:46:08.240Z,5996.00
2019-02-17T11:47:08.221Z,5956.00
2019-02-17T11:48:08.208Z,5924.00
2019-02-17T11:49:08.200Z,5936.00
2019-02-17T11:50:08.219Z,5928.00
2019-02-17T11:51:08.182Z,5924.00
2019-02-17T11:52:08.172Z,5856.00
2019-02-17T11:53:08.178Z,5944.00
2019-02-17T11:54:08.147Z,5912.00
2019-02-17T11:55:08.138Z,5900.00
2019-02-17T11:56:08.157Z,5852.00
2019-02-17T11:57:08.114Z,5844.00
2019-02-17T11:58:08.101Z,5820.00
2019-02-17T11:59:08.092Z,5776.00
2019-02-17T12:00:08.078Z,5756.00
2019-02-17T12:01:08.087Z,5788.00
2019-02-17T12:02:08.060Z,5780.00
2019-02-17T12:03:08.517Z,5792.00
2019-02-17T12:04:08.061Z,5868.00
2019-02-17T12:05:08.029Z,5912.00
2019-02-17T12:06:08.017Z,5960.00
2019-02-17T12:07:08.004Z,6000.00
2019-02-17T12:08:08.017Z,6016.00
2019-02-17T12:09:07.986Z,6052.00
2019-02-17T12:10:07.977Z,6064.00
2019-02-17T12:11:07.976Z,6012.00
2019-02-17T12:12:07.950Z,5956.00
2019-02-17T12:13:07.940Z,5936.00
2019-02-17T12:14:07.932Z,5972.00
2019-02-17T12:15:07.937Z,6020.00
2019-02-17T12:16:07.929Z,6048.00
2019-02-17T12:17:07.900Z,6064.00
2019-02-17T12:18:07.886Z,6204.00
2019-02-17T12:19:07.886Z,6308.00
2019-02-17T12:20:07.865Z,6328.00
2019-02-17T12:21:07.891Z,6308.00
2019-02-17T12:22:07.846Z,6308.00
2019-02-17T12:23:07.837Z,6332.00
2019-02-17T12:24:07.846Z,6360.00
2019-02-17T12:25:07.857Z,6408.00
2019-02-17T12:26:07.894Z,6416.00
2019-02-17T12:27:07.810Z,6396.00
2019-02-17T12:28:07.789Z,6420.00
2019-02-17T12:29:07.784Z,6408.00
2019-02-17T12:30:07.805Z,6408.00
2019-02-17T12:31:07.741Z,6456.00
2019-02-17T12:32:07.748Z,6492.00
2019-02-17T12:33:17.748Z,6552.00
2019-02-17T12:34:08.713Z,6552.00
2019-02-17T12:35:07.704Z,6560.00
2019-02-17T12:36:07.693Z,6520.00
2019-02-17T12:37:07.709Z,6544.00
2019-02-17T12:38:07.669Z,6524.00
2019-02-17T12:39:07.659Z,6536.00
2019-02-17T12:40:07.650Z,6544.00